sensor_id;sensor_type;location;lat;lon;timestamp;P1;durP1;ratioP1;P2;durP2;ratioP2
15254;SDS011;7730;49.610;11.136;2022-09-17T00:01:26;2.85;;;1.50;;
15254;SDS011;7730;49.610;11.136;2022-09-17T00:03:54;4.10;;;1.50;;
15254;SDS011;7730;49.610;11.136;2022-09-17T00:06:21;5.00;;;1.60;;
15254;SDS011;7730;49.610;11.136;2022-09-17T00:08:48;2.55;;;1.58;;
15254;SDS011;7730;49.610;11.136;2022-09-17T00:11:16;3.83;;;1.50;;
15254;SDS011;7730;49.610;11.136;2022-09-17T00:13:45;2.55;;;1.50;;
15254;SDS011;7730;49.610;11.136;2022-09-17T00:16:19;2.78;;;1.38;;
15254;SDS011;7730;49.610;11.136;2022-09-17T00:18:47;2.78;;;1.50;;
15254;SDS011;7730;49.610;11.136;2022-09-17T00:21:14;3.35;;;1.42;;
15254;SDS011;7730;49.610;11.136;2022-09-17T00:23:41;4.85;;;1.88;;
15254;SDS011;7730;49.610;11.136;2022-09-17T00:26:09;2.30;;;1.50;;
15254;SDS011;7730;49.610;11.136;2022-09-17T00:28:36;3.85;;;1.60;;
15254;SDS011;7730;49.610;11.136;2022-09-17T00:31:05;3.85;;;1.58;;
15254;SDS011;7730;49.610;11.136;2022-09-17T00:33:34;2.47;;;1.33;;
15254;SDS011;7730;49.610;11.136;2022-09-17T00:36:01;2.95;;;1.30;;
15254;SDS011;7730;49.610;11.136;2022-09-17T00:38:29;3.03;;;1.67;;
15254;SDS011;7730;49.610;11.136;2022-09-17T00:40:56;3.58;;;1.60;;
15254;SDS011;7730;49.610;11.136;2022-09-17T00:43:40;4.07;;;1.60;;
15254;SDS011;7730;49.610;11.136;2022-09-17T00:46:15;3.30;;;1.77;;
15254;SDS011;7730;49.610;11.136;2022-09-17T00:48:45;3.80;;;1.60;;
15254;SDS011;7730;49.610;11.136;2022-09-17T00:51:12;4.70;;;1.70;;
15254;SDS011;7730;49.610;11.136;2022-09-17T00:53:41;4.10;;;1.85;;
15254;SDS011;7730;49.610;11.136;2022-09-17T00:56:08;4.65;;;1.92;;
15254;SDS011;7730;49.610;11.136;2022-09-17T00:58:37;3.70;;;1.65;;
15254;SDS011;7730;49.610;11.136;2022-09-17T01:01:04;3.75;;;2.10;;
15254;SDS011;7730;49.610;11.136;2022-09-17T01:03:31;3.75;;;2.10;;
15254;SDS011;7730;49.610;11.136;2022-09-17T01:06:03;7.00;;;2.17;;
15254;SDS011;7730;49.610;11.136;2022-09-17T01:08:33;6.20;;;2.13;;
15254;SDS011;7730;49.610;11.136;2022-09-17T01:11:11;5.55;;;2.22;;
15254;SDS011;7730;49.610;11.136;2022-09-17T01:13:43;4.07;;;2.00;;
15254;SDS011;7730;49.610;11.136;2022-09-17T01:16:15;5.82;;;2.30;;
15254;SDS011;7730;49.610;11.136;2022-09-17T01:18:49;3.70;;;2.00;;
15254;SDS011;7730;49.610;11.136;2022-09-17T01:21:27;7.13;;;2.40;;
15254;SDS011;7730;49.610;11.136;2022-09-17T01:24:15;8.30;;;2.28;;
15254;SDS011;7730;49.610;11.136;2022-09-17T01:26:53;5.47;;;2.50;;
15254;SDS011;7730;49.610;11.136;2022-09-17T01:29:33;5.97;;;2.60;;
15254;SDS011;7730;49.610;11.136;2022-09-17T01:32:06;6.72;;;2.60;;
15254;SDS011;7730;49.610;11.136;2022-09-17T01:34:36;6.60;;;2.70;;
15254;SDS011;7730;49.610;11.136;2022-09-17T01:37:08;8.00;;;2.75;;
15254;SDS011;7730;49.610;11.136;2022-09-17T01:39:41;7.75;;;2.70;;
15254;SDS011;7730;49.610;11.136;2022-09-17T01:42:13;7.55;;;3.00;;
15254;SDS011;7730;49.610;11.136;2022-09-17T01:44:43;6.43;;;2.60;;
15254;SDS011;7730;49.610;11.136;2022-09-17T01:47:13;8.80;;;2.88;;
15254;SDS011;7730;49.610;11.136;2022-09-17T01:49:42;7.25;;;2.80;;
15254;SDS011;7730;49.610;11.136;2022-09-17T01:52:10;6.88;;;2.60;;
15254;SDS011;7730;49.610;11.136;2022-09-17T01:54:39;6.72;;;2.65;;
15254;SDS011;7730;49.610;11.136;2022-09-17T01:57:08;7.15;;;2.60;;
15254;SDS011;7730;49.610;11.136;2022-09-17T01:59:36;8.68;;;3.13;;
15254;SDS011;7730;49.610;11.136;2022-09-17T02:02:06;8.65;;;2.83;;
15254;SDS011;7730;49.610;11.136;2022-09-17T02:04:39;6.45;;;2.42;;
15254;SDS011;7730;49.610;11.136;2022-09-17T02:07:09;8.73;;;2.85;;
15254;SDS011;7730;49.610;11.136;2022-09-17T02:09:39;7.28;;;2.58;;
15254;SDS011;7730;49.610;11.136;2022-09-17T02:12:09;7.18;;;2.70;;
15254;SDS011;7730;49.610;11.136;2022-09-17T02:14:38;8.13;;;2.85;;
15254;SDS011;7730;49.610;11.136;2022-09-17T02:17:09;7.03;;;2.58;;
15254;SDS011;7730;49.610;11.136;2022-09-17T02:19:39;8.07;;;2.67;;
15254;SDS011;7730;49.610;11.136;2022-09-17T02:22:09;8.70;;;2.90;;
15254;SDS011;7730;49.610;11.136;2022-09-17T02:24:39;7.55;;;2.70;;
15254;SDS011;7730;49.610;11.136;2022-09-17T02:27:11;9.18;;;2.70;;
15254;SDS011;7730;49.610;11.136;2022-09-17T02:29:41;6.80;;;2.72;;
15254;SDS011;7730;49.610;11.136;2022-09-17T02:32:09;7.18;;;2.47;;
15254;SDS011;7730;49.610;11.136;2022-09-17T02:34:36;8.88;;;2.80;;
15254;SDS011;7730;49.610;11.136;2022-09-17T02:37:05;7.15;;;2.60;;
15254;SDS011;7730;49.610;11.136;2022-09-17T02:39:32;6.65;;;2.40;;
15254;SDS011;7730;49.610;11.136;2022-09-17T02:42:02;8.45;;;3.00;;
15254;SDS011;7730;49.610;11.136;2022-09-17T02:44:33;7.10;;;2.50;;
15254;SDS011;7730;49.610;11.136;2022-09-17T02:47:09;6.18;;;2.40;;
15254;SDS011;7730;49.610;11.136;2022-09-17T02:49:46;10.00;;;2.63;;
15254;SDS011;7730;49.610;11.136;2022-09-17T02:52:23;7.65;;;2.55;;
15254;SDS011;7730;49.610;11.136;2022-09-17T02:54:57;8.48;;;2.63;;
15254;SDS011;7730;49.610;11.136;2022-09-17T02:57:28;8.40;;;2.70;;
15254;SDS011;7730;49.610;11.136;2022-09-17T03:00:03;7.47;;;2.70;;
15254;SDS011;7730;49.610;11.136;2022-09-17T03:02:32;10.40;;;2.70;;
15254;SDS011;7730;49.610;11.136;2022-09-17T03:05:02;8.65;;;2.42;;
15254;SDS011;7730;49.610;11.136;2022-09-17T03:07:31;9.60;;;2.72;;
15254;SDS011;7730;49.610;11.136;2022-09-17T03:09:58;6.47;;;2.25;;
15254;SDS011;7730;49.610;11.136;2022-09-17T03:12:25;10.05;;;2.50;;
15254;SDS011;7730;49.610;11.136;2022-09-17T03:14:52;9.90;;;2.60;;
15254;SDS011;7730;49.610;11.136;2022-09-17T03:17:19;8.80;;;2.33;;
15254;SDS011;7730;49.610;11.136;2022-09-17T03:19:46;7.32;;;2.40;;
15254;SDS011;7730;49.610;11.136;2022-09-17T03:22:13;7.75;;;2.40;;
15254;SDS011;7730;49.610;11.136;2022-09-17T03:24:41;8.38;;;2.47;;
15254;SDS011;7730;49.610;11.136;2022-09-17T03:27:08;7.88;;;2.38;;
15254;SDS011;7730;49.610;11.136;2022-09-17T03:29:35;5.45;;;2.30;;
15254;SDS011;7730;49.610;11.136;2022-09-17T03:32:02;6.75;;;2.30;;
15254;SDS011;7730;49.610;11.136;2022-09-17T03:34:30;11.85;;;2.65;;
15254;SDS011;7730;49.610;11.136;2022-09-17T03:36:57;9.57;;;2.60;;
15254;SDS011;7730;49.610;11.136;2022-09-17T03:39:24;8.70;;;2.28;;
15254;SDS011;7730;49.610;11.136;2022-09-17T03:41:52;8.52;;;2.70;;
15254;SDS011;7730;49.610;11.136;2022-09-17T03:44:19;9.20;;;2.40;;
15254;SDS011;7730;49.610;11.136;2022-09-17T03:46:47;6.05;;;2.20;;
15254;SDS011;7730;49.610;11.136;2022-09-17T03:49:14;7.68;;;2.58;;
15254;SDS011;7730;49.610;11.136;2022-09-17T03:51:41;10.50;;;2.70;;
15254;SDS011;7730;49.610;11.136;2022-09-17T03:54:09;9.25;;;2.40;;
15254;SDS011;7730;49.610;11.136;2022-09-17T03:56:36;10.75;;;2.70;;
15254;SDS011;7730;49.610;11.136;2022-09-17T03:59:04;8.20;;;2.17;;
15254;SDS011;7730;49.610;11.136;2022-09-17T04:01:31;8.65;;;2.30;;
15254;SDS011;7730;49.610;11.136;2022-09-17T04:04:00;8.75;;;2.42;;
15254;SDS011;7730;49.610;11.136;2022-09-17T04:06:27;11.15;;;2.40;;
15254;SDS011;7730;49.610;11.136;2022-09-17T04:08:54;9.50;;;2.35;;
15254;SDS011;7730;49.610;11.136;2022-09-17T04:11:21;8.82;;;2.15;;
15254;SDS011;7730;49.610;11.136;2022-09-17T04:13:48;9.32;;;2.40;;
15254;SDS011;7730;49.610;11.136;2022-09-17T04:16:16;7.97;;;2.58;;
15254;SDS011;7730;49.610;11.136;2022-09-17T04:18:43;7.97;;;2.30;;
15254;SDS011;7730;49.610;11.136;2022-09-17T04:21:10;7.93;;;2.15;;
15254;SDS011;7730;49.610;11.136;2022-09-17T04:23:37;9.38;;;2.33;;
15254;SDS011;7730;49.610;11.136;2022-09-17T04:26:04;7.15;;;2.40;;
15254;SDS011;7730;49.610;11.136;2022-09-17T04:28:31;9.68;;;2.60;;
15254;SDS011;7730;49.610;11.136;2022-09-17T04:30:58;6.22;;;2.20;;
15254;SDS011;7730;49.610;11.136;2022-09-17T04:33:27;9.30;;;2.13;;
15254;SDS011;7730;49.610;11.136;2022-09-17T04:35:54;6.68;;;2.40;;
15254;SDS011;7730;49.610;11.136;2022-09-17T04:38:21;7.95;;;2.10;;
15254;SDS011;7730;49.610;11.136;2022-09-17T04:40:48;6.30;;;2.00;;
15254;SDS011;7730;49.610;11.136;2022-09-17T04:43:15;8.35;;;2.42;;
15254;SDS011;7730;49.610;11.136;2022-09-17T04:45:43;6.65;;;2.10;;
15254;SDS011;7730;49.610;11.136;2022-09-17T04:48:11;8.82;;;2.15;;
15254;SDS011;7730;49.610;11.136;2022-09-17T04:50:39;6.93;;;2.03;;
15254;SDS011;7730;49.610;11.136;2022-09-17T04:53:06;11.27;;;2.30;;
15254;SDS011;7730;49.610;11.136;2022-09-17T04:55:33;11.98;;;2.17;;
15254;SDS011;7730;49.610;11.136;2022-09-17T04:58:00;9.82;;;2.20;;
15254;SDS011;7730;49.610;11.136;2022-09-17T05:00:28;6.10;;;2.00;;
15254;SDS011;7730;49.610;11.136;2022-09-17T05:02:55;6.07;;;1.92;;
15254;SDS011;7730;49.610;11.136;2022-09-17T05:05:22;8.45;;;2.30;;
15254;SDS011;7730;49.610;11.136;2022-09-17T05:07:51;8.80;;;2.13;;
15254;SDS011;7730;49.610;11.136;2022-09-17T05:10:19;9.52;;;2.13;;
15254;SDS011;7730;49.610;11.136;2022-09-17T05:12:47;9.45;;;2.22;;
15254;SDS011;7730;49.610;11.136;2022-09-17T05:15:14;6.25;;;1.98;;
15254;SDS011;7730;49.610;11.136;2022-09-17T05:17:42;8.05;;;2.20;;
15254;SDS011;7730;49.610;11.136;2022-09-17T05:20:09;6.60;;;2.10;;
15254;SDS011;7730;49.610;11.136;2022-09-17T05:22:39;10.85;;;2.45;;
15254;SDS011;7730;49.610;11.136;2022-09-17T05:25:08;8.52;;;2.00;;
15254;SDS011;7730;49.610;11.136;2022-09-17T05:27:37;6.97;;;1.83;;
15254;SDS011;7730;49.610;11.136;2022-09-17T05:30:04;9.23;;;2.08;;
15254;SDS011;7730;49.610;11.136;2022-09-17T05:32:32;7.57;;;2.00;;
15254;SDS011;7730;49.610;11.136;2022-09-17T05:34:59;5.82;;;1.90;;
15254;SDS011;7730;49.610;11.136;2022-09-17T05:37:26;5.60;;;1.70;;
15254;SDS011;7730;49.610;11.136;2022-09-17T05:39:53;6.97;;;2.03;;
15254;SDS011;7730;49.610;11.136;2022-09-17T05:42:21;6.85;;;1.80;;
15254;SDS011;7730;49.610;11.136;2022-09-17T05:44:48;6.63;;;1.60;;
15254;SDS011;7730;49.610;11.136;2022-09-17T05:47:15;8.68;;;1.73;;
15254;SDS011;7730;49.610;11.136;2022-09-17T05:49:42;5.88;;;1.77;;
15254;SDS011;7730;49.610;11.136;2022-09-17T05:52:09;6.35;;;1.50;;
15254;SDS011;7730;49.610;11.136;2022-09-17T05:54:36;6.50;;;1.45;;
15254;SDS011;7730;49.610;11.136;2022-09-17T05:57:04;5.60;;;1.63;;
15254;SDS011;7730;49.610;11.136;2022-09-17T05:59:32;5.65;;;1.38;;
15254;SDS011;7730;49.610;11.136;2022-09-17T06:02:00;5.30;;;1.20;;
15254;SDS011;7730;49.610;11.136;2022-09-17T06:04:27;4.03;;;1.20;;
15254;SDS011;7730;49.610;11.136;2022-09-17T06:06:54;1.63;;;0.80;;
15254;SDS011;7730;49.610;11.136;2022-09-17T06:09:21;2.30;;;1.00;;
15254;SDS011;7730;49.610;11.136;2022-09-17T06:11:48;1.83;;;0.95;;
15254;SDS011;7730;49.610;11.136;2022-09-17T06:14:15;5.20;;;1.05;;
15254;SDS011;7730;49.610;11.136;2022-09-17T06:16:43;5.82;;;1.20;;
15254;SDS011;7730;49.610;11.136;2022-09-17T06:19:10;3.22;;;1.20;;
15254;SDS011;7730;49.610;11.136;2022-09-17T06:21:37;2.88;;;1.00;;
15254;SDS011;7730;49.610;11.136;2022-09-17T06:24:04;3.30;;;1.20;;
15254;SDS011;7730;49.610;11.136;2022-09-17T06:26:31;7.30;;;1.55;;
15254;SDS011;7730;49.610;11.136;2022-09-17T06:28:58;4.60;;;1.48;;
15254;SDS011;7730;49.610;11.136;2022-09-17T06:31:26;3.60;;;1.40;;
15254;SDS011;7730;49.610;11.136;2022-09-17T06:33:55;5.22;;;1.25;;
15254;SDS011;7730;49.610;11.136;2022-09-17T06:36:22;5.10;;;1.30;;
15254;SDS011;7730;49.610;11.136;2022-09-17T06:38:49;4.03;;;1.30;;
15254;SDS011;7730;49.610;11.136;2022-09-17T06:41:16;4.28;;;1.58;;
15254;SDS011;7730;49.610;11.136;2022-09-17T06:43:43;3.65;;;1.55;;
15254;SDS011;7730;49.610;11.136;2022-09-17T06:46:10;3.55;;;1.35;;
15254;SDS011;7730;49.610;11.136;2022-09-17T06:48:37;5.18;;;1.55;;
15254;SDS011;7730;49.610;11.136;2022-09-17T06:51:06;3.50;;;1.35;;
15254;SDS011;7730;49.610;11.136;2022-09-17T06:53:34;6.18;;;1.65;;
15254;SDS011;7730;49.610;11.136;2022-09-17T06:56:02;6.88;;;1.70;;
15254;SDS011;7730;49.610;11.136;2022-09-17T06:58:30;2.70;;;1.50;;
15254;SDS011;7730;49.610;11.136;2022-09-17T07:00:57;4.63;;;1.60;;
15254;SDS011;7730;49.610;11.136;2022-09-17T07:03:25;3.15;;;1.30;;
15254;SDS011;7730;49.610;11.136;2022-09-17T07:05:52;4.38;;;1.50;;
15254;SDS011;7730;49.610;11.136;2022-09-17T07:08:20;4.45;;;1.70;;
15254;SDS011;7730;49.610;11.136;2022-09-17T07:10:47;4.07;;;1.65;;
15254;SDS011;7730;49.610;11.136;2022-09-17T07:13:14;4.82;;;1.60;;
15254;SDS011;7730;49.610;11.136;2022-09-17T07:15:41;2.63;;;1.50;;
15254;SDS011;7730;49.610;11.136;2022-09-17T07:18:08;2.05;;;1.50;;
15254;SDS011;7730;49.610;11.136;2022-09-17T07:20:36;3.63;;;1.55;;
15254;SDS011;7730;49.610;11.136;2022-09-17T07:23:03;4.47;;;1.58;;
15254;SDS011;7730;49.610;11.136;2022-09-17T07:25:31;5.65;;;1.80;;
15254;SDS011;7730;49.610;11.136;2022-09-17T07:27:58;5.55;;;1.70;;
15254;SDS011;7730;49.610;11.136;2022-09-17T07:30:25;5.60;;;1.80;;
15254;SDS011;7730;49.610;11.136;2022-09-17T07:32:52;3.83;;;1.60;;
15254;SDS011;7730;49.610;11.136;2022-09-17T07:35:19;4.80;;;1.90;;
15254;SDS011;7730;49.610;11.136;2022-09-17T07:37:46;3.17;;;1.65;;
15254;SDS011;7730;49.610;11.136;2022-09-17T07:40:13;5.20;;;1.80;;
15254;SDS011;7730;49.610;11.136;2022-09-17T07:42:42;3.97;;;2.00;;
15254;SDS011;7730;49.610;11.136;2022-09-17T07:45:09;4.97;;;2.03;;
15254;SDS011;7730;49.610;11.136;2022-09-17T07:47:39;5.00;;;1.98;;
15254;SDS011;7730;49.610;11.136;2022-09-17T07:50:06;5.88;;;2.20;;
15254;SDS011;7730;49.610;11.136;2022-09-17T07:52:34;4.95;;;2.13;;
15254;SDS011;7730;49.610;11.136;2022-09-17T07:55:01;6.00;;;2.05;;
15254;SDS011;7730;49.610;11.136;2022-09-17T07:57:28;6.47;;;2.10;;
15254;SDS011;7730;49.610;11.136;2022-09-17T07:59:56;6.97;;;2.53;;
15254;SDS011;7730;49.610;11.136;2022-09-17T08:02:23;5.43;;;1.92;;
15254;SDS011;7730;49.610;11.136;2022-09-17T08:04:50;5.38;;;1.95;;
15254;SDS011;7730;49.610;11.136;2022-09-17T08:07:18;6.10;;;2.20;;
15254;SDS011;7730;49.610;11.136;2022-09-17T08:09:45;8.02;;;2.40;;
15254;SDS011;7730;49.610;11.136;2022-09-17T08:12:12;7.57;;;2.45;;
15254;SDS011;7730;49.610;11.136;2022-09-17T08:14:39;8.43;;;2.30;;
15254;SDS011;7730;49.610;11.136;2022-09-17T08:17:08;7.00;;;2.30;;
15254;SDS011;7730;49.610;11.136;2022-09-17T08:19:35;9.35;;;2.45;;
15254;SDS011;7730;49.610;11.136;2022-09-17T08:22:02;9.57;;;2.45;;
15254;SDS011;7730;49.610;11.136;2022-09-17T08:24:29;6.53;;;2.25;;
15254;SDS011;7730;49.610;11.136;2022-09-17T08:26:56;10.57;;;2.50;;
15254;SDS011;7730;49.610;11.136;2022-09-17T08:29:23;8.70;;;2.20;;
15254;SDS011;7730;49.610;11.136;2022-09-17T08:31:50;7.45;;;2.42;;
15254;SDS011;7730;49.610;11.136;2022-09-17T08:34:18;7.35;;;2.45;;
15254;SDS011;7730;49.610;11.136;2022-09-17T08:36:45;9.50;;;2.38;;
15254;SDS011;7730;49.610;11.136;2022-09-17T08:39:12;10.70;;;3.03;;
15254;SDS011;7730;49.610;11.136;2022-09-17T08:41:43;8.18;;;2.50;;
15254;SDS011;7730;49.610;11.136;2022-09-17T08:44:14;8.98;;;2.53;;
15254;SDS011;7730;49.610;11.136;2022-09-17T08:46:45;7.53;;;2.38;;
15254;SDS011;7730;49.610;11.136;2022-09-17T08:49:15;7.45;;;2.35;;
15254;SDS011;7730;49.610;11.136;2022-09-17T08:51:50;9.38;;;2.60;;
15254;SDS011;7730;49.610;11.136;2022-09-17T08:54:21;6.30;;;2.47;;
15254;SDS011;7730;49.610;11.136;2022-09-17T08:56:57;8.95;;;2.65;;
15254;SDS011;7730;49.610;11.136;2022-09-17T08:59:29;8.88;;;2.70;;
15254;SDS011;7730;49.610;11.136;2022-09-17T09:01:59;9.85;;;2.70;;
15254;SDS011;7730;49.610;11.136;2022-09-17T09:04:35;10.70;;;2.72;;
15254;SDS011;7730;49.610;11.136;2022-09-17T09:07:08;10.43;;;2.58;;
15254;SDS011;7730;49.610;11.136;2022-09-17T09:09:36;6.95;;;2.50;;
15254;SDS011;7730;49.610;11.136;2022-09-17T09:12:08;8.73;;;2.60;;
15254;SDS011;7730;49.610;11.136;2022-09-17T09:14:38;7.95;;;2.50;;
15254;SDS011;7730;49.610;11.136;2022-09-17T09:17:06;8.43;;;2.17;;
15254;SDS011;7730;49.610;11.136;2022-09-17T09:19:38;10.32;;;2.65;;
15254;SDS011;7730;49.610;11.136;2022-09-17T09:22:13;10.60;;;2.80;;
15254;SDS011;7730;49.610;11.136;2022-09-17T09:24:48;11.73;;;2.95;;
15254;SDS011;7730;49.610;11.136;2022-09-17T09:27:20;11.73;;;2.60;;
15254;SDS011;7730;49.610;11.136;2022-09-17T09:29:54;8.68;;;2.55;;
15254;SDS011;7730;49.610;11.136;2022-09-17T09:32:28;12.75;;;2.85;;
15254;SDS011;7730;49.610;11.136;2022-09-17T09:35:12;11.38;;;2.60;;
15254;SDS011;7730;49.610;11.136;2022-09-17T09:37:42;11.75;;;2.92;;
15254;SDS011;7730;49.610;11.136;2022-09-17T09:40:15;12.32;;;3.00;;
15254;SDS011;7730;49.610;11.136;2022-09-17T09:42:45;8.15;;;2.40;;
15254;SDS011;7730;49.610;11.136;2022-09-17T09:45:14;8.90;;;2.40;;
15254;SDS011;7730;49.610;11.136;2022-09-17T09:47:45;11.75;;;2.63;;
15254;SDS011;7730;49.610;11.136;2022-09-17T09:50:17;10.82;;;2.97;;
15254;SDS011;7730;49.610;11.136;2022-09-17T09:52:54;10.27;;;2.42;;
15254;SDS011;7730;49.610;11.136;2022-09-17T09:58:08;11.23;;;2.63;;
15254;SDS011;7730;49.610;11.136;2022-09-17T10:00:38;12.23;;;2.72;;
15254;SDS011;7730;49.610;11.136;2022-09-17T10:03:09;13.77;;;2.67;;
15254;SDS011;7730;49.610;11.136;2022-09-17T10:05:38;11.15;;;2.63;;
15254;SDS011;7730;49.610;11.136;2022-09-17T10:08:13;10.63;;;2.65;;
15254;SDS011;7730;49.610;11.136;2022-09-17T10:10:52;13.75;;;3.13;;
15254;SDS011;7730;49.610;11.136;2022-09-17T10:13:20;12.20;;;2.90;;
15254;SDS011;7730;49.610;11.136;2022-09-17T10:15:47;12.90;;;3.10;;
15254;SDS011;7730;49.610;11.136;2022-09-17T10:18:16;11.18;;;2.90;;
15254;SDS011;7730;49.610;11.136;2022-09-17T10:20:50;14.23;;;2.80;;
15254;SDS011;7730;49.610;11.136;2022-09-17T10:23:19;11.18;;;2.63;;
15254;SDS011;7730;49.610;11.136;2022-09-17T10:25:46;10.85;;;2.80;;
15254;SDS011;7730;49.610;11.136;2022-09-17T10:28:23;11.38;;;2.70;;
15254;SDS011;7730;49.610;11.136;2022-09-17T10:30:57;11.27;;;2.65;;
15254;SDS011;7730;49.610;11.136;2022-09-17T10:33:25;10.20;;;2.60;;
15254;SDS011;7730;49.610;11.136;2022-09-17T10:35:53;10.75;;;2.50;;
15254;SDS011;7730;49.610;11.136;2022-09-17T10:38:27;12.40;;;2.80;;
15254;SDS011;7730;49.610;11.136;2022-09-17T10:41:06;11.98;;;2.53;;
15254;SDS011;7730;49.610;11.136;2022-09-17T10:43:33;11.45;;;2.90;;
15254;SDS011;7730;49.610;11.136;2022-09-17T10:46:00;12.20;;;2.60;;
15254;SDS011;7730;49.610;11.136;2022-09-17T10:48:30;9.93;;;2.42;;
15254;SDS011;7730;49.610;11.136;2022-09-17T10:50:57;10.13;;;2.40;;
15254;SDS011;7730;49.610;11.136;2022-09-17T10:53:28;11.40;;;2.42;;
15254;SDS011;7730;49.610;11.136;2022-09-17T10:56:01;9.70;;;2.25;;
15254;SDS011;7730;49.610;11.136;2022-09-17T10:58:39;12.45;;;2.55;;
15254;SDS011;7730;49.610;11.136;2022-09-17T11:01:13;10.77;;;2.70;;
15254;SDS011;7730;49.610;11.136;2022-09-17T11:03:48;10.68;;;2.38;;
15254;SDS011;7730;49.610;11.136;2022-09-17T11:06:20;10.15;;;2.50;;
15254;SDS011;7730;49.610;11.136;2022-09-17T11:08:54;11.13;;;2.58;;
15254;SDS011;7730;49.610;11.136;2022-09-17T11:11:28;9.55;;;2.55;;
15254;SDS011;7730;49.610;11.136;2022-09-17T11:13:59;11.18;;;2.35;;
15254;SDS011;7730;49.610;11.136;2022-09-17T11:16:31;9.73;;;2.35;;
15254;SDS011;7730;49.610;11.136;2022-09-17T11:19:05;11.65;;;2.80;;
15254;SDS011;7730;49.610;11.136;2022-09-17T11:21:45;11.40;;;2.60;;
15254;SDS011;7730;49.610;11.136;2022-09-17T11:24:38;8.88;;;2.33;;
15254;SDS011;7730;49.610;11.136;2022-09-17T11:27:12;10.23;;;2.58;;
15254;SDS011;7730;49.610;11.136;2022-09-17T11:29:49;10.90;;;2.60;;
15254;SDS011;7730;49.610;11.136;2022-09-17T11:32:25;10.07;;;2.60;;
15254;SDS011;7730;49.610;11.136;2022-09-17T11:34:56;9.13;;;2.50;;
15254;SDS011;7730;49.610;11.136;2022-09-17T11:37:25;9.43;;;2.53;;
15254;SDS011;7730;49.610;11.136;2022-09-17T11:39:56;9.20;;;2.28;;
15254;SDS011;7730;49.610;11.136;2022-09-17T11:42:27;8.07;;;2.10;;
15254;SDS011;7730;49.610;11.136;2022-09-17T11:44:57;10.60;;;2.30;;
15254;SDS011;7730;49.610;11.136;2022-09-17T11:47:26;9.48;;;2.40;;
15254;SDS011;7730;49.610;11.136;2022-09-17T11:49:55;8.93;;;2.20;;
15254;SDS011;7730;49.610;11.136;2022-09-17T11:52:25;9.23;;;2.50;;
15254;SDS011;7730;49.610;11.136;2022-09-17T11:54:56;11.85;;;2.60;;
15254;SDS011;7730;49.610;11.136;2022-09-17T11:57:24;8.55;;;2.10;;
15254;SDS011;7730;49.610;11.136;2022-09-17T11:59:53;11.13;;;2.30;;
15254;SDS011;7730;49.610;11.136;2022-09-17T12:02:24;8.93;;;2.53;;
15254;SDS011;7730;49.610;11.136;2022-09-17T12:04:54;8.10;;;2.20;;
15254;SDS011;7730;49.610;11.136;2022-09-17T12:07:32;8.50;;;1.95;;
15254;SDS011;7730;49.610;11.136;2022-09-17T12:10:06;6.63;;;2.00;;
15254;SDS011;7730;49.610;11.136;2022-09-17T12:12:35;6.82;;;1.80;;
15254;SDS011;7730;49.610;11.136;2022-09-17T12:15:05;5.53;;;2.13;;
15254;SDS011;7730;49.610;11.136;2022-09-17T12:17:33;4.70;;;1.73;;
15254;SDS011;7730;49.610;11.136;2022-09-17T12:20:04;3.97;;;1.73;;
15254;SDS011;7730;49.610;11.136;2022-09-17T12:22:33;8.13;;;1.90;;
15254;SDS011;7730;49.610;11.136;2022-09-17T12:25:01;6.65;;;1.92;;
15254;SDS011;7730;49.610;11.136;2022-09-17T12:27:32;8.10;;;2.20;;
15254;SDS011;7730;49.610;11.136;2022-09-17T12:30:06;6.75;;;2.00;;
15254;SDS011;7730;49.610;11.136;2022-09-17T12:32:39;6.53;;;2.30;;
15254;SDS011;7730;49.610;11.136;2022-09-17T12:35:13;5.28;;;1.90;;
15254;SDS011;7730;49.610;11.136;2022-09-17T12:37:46;8.43;;;2.22;;
15254;SDS011;7730;49.610;11.136;2022-09-17T12:40:20;8.65;;;2.08;;
15254;SDS011;7730;49.610;11.136;2022-09-17T12:42:58;6.00;;;2.00;;
15254;SDS011;7730;49.610;11.136;2022-09-17T12:45:39;8.60;;;2.30;;
15254;SDS011;7730;49.610;11.136;2022-09-17T12:48:21;10.77;;;2.50;;
15254;SDS011;7730;49.610;11.136;2022-09-17T12:50:54;8.15;;;2.40;;
15254;SDS011;7730;49.610;11.136;2022-09-17T12:53:27;6.63;;;2.20;;
15254;SDS011;7730;49.610;11.136;2022-09-17T12:58:45;8.82;;;2.15;;
15254;SDS011;7730;49.610;11.136;2022-09-17T13:01:16;9.25;;;2.20;;
15254;SDS011;7730;49.610;11.136;2022-09-17T13:03:45;7.88;;;2.17;;
15254;SDS011;7730;49.610;11.136;2022-09-17T13:12:00;8.60;;;2.30;;
15254;SDS011;7730;49.610;11.136;2022-09-17T13:14:35;8.27;;;2.25;;
15254;SDS011;7730;49.610;11.136;2022-09-17T13:17:09;8.52;;;2.30;;
15254;SDS011;7730;49.610;11.136;2022-09-17T13:19:38;7.57;;;2.60;;
15254;SDS011;7730;49.610;11.136;2022-09-17T13:22:08;10.35;;;2.50;;
15254;SDS011;7730;49.610;11.136;2022-09-17T13:24:40;7.28;;;2.28;;
15254;SDS011;7730;49.610;11.136;2022-09-17T13:27:18;4.78;;;1.30;;
15254;SDS011;7730;49.610;11.136;2022-09-17T13:30:00;3.25;;;1.27;;
15254;SDS011;7730;49.610;11.136;2022-09-17T13:32:46;1.60;;;1.10;;
15254;SDS011;7730;49.610;11.136;2022-09-17T13:37:59;1.40;;;1.10;;
15254;SDS011;7730;49.610;11.136;2022-09-17T13:40:27;3.85;;;1.27;;
15254;SDS011;7730;49.610;11.136;2022-09-17T13:42:55;4.60;;;1.20;;
15254;SDS011;7730;49.610;11.136;2022-09-17T13:45:24;4.28;;;1.58;;
15254;SDS011;7730;49.610;11.136;2022-09-17T13:47:52;4.63;;;1.50;;
15254;SDS011;7730;49.610;11.136;2022-09-17T13:50:24;5.63;;;1.77;;
15254;SDS011;7730;49.610;11.136;2022-09-17T13:52:52;4.72;;;1.52;;
15254;SDS011;7730;49.610;11.136;2022-09-17T13:55:29;4.15;;;1.52;;
15254;SDS011;7730;49.610;11.136;2022-09-17T13:57:58;3.20;;;1.70;;
15254;SDS011;7730;49.610;11.136;2022-09-17T14:06:41;3.50;;;1.60;;
15254;SDS011;7730;49.610;11.136;2022-09-17T14:08:47;3.75;;;1.45;;
15254;SDS011;7730;49.610;11.136;2022-09-17T14:11:36;4.15;;;1.35;;
15254;SDS011;7730;49.610;11.136;2022-09-17T14:16:57;5.55;;;1.77;;
15254;SDS011;7730;49.610;11.136;2022-09-17T14:19:26;2.92;;;1.27;;
15254;SDS011;7730;49.610;11.136;2022-09-17T14:21:56;4.20;;;1.70;;
15254;SDS011;7730;49.610;11.136;2022-09-17T14:24:25;5.07;;;1.40;;
15254;SDS011;7730;49.610;11.136;2022-09-17T14:26:58;2.92;;;1.42;;
15254;SDS011;7730;49.610;11.136;2022-09-17T14:29:32;6.03;;;1.70;;
15254;SDS011;7730;49.610;11.136;2022-09-17T14:32:05;5.47;;;1.73;;
15254;SDS011;7730;49.610;11.136;2022-09-17T14:34:32;6.63;;;1.65;;
15254;SDS011;7730;49.610;11.136;2022-09-17T14:37:01;4.88;;;1.40;;
15254;SDS011;7730;49.610;11.136;2022-09-17T14:39:28;4.57;;;1.55;;
15254;SDS011;7730;49.610;11.136;2022-09-17T14:42:02;4.88;;;1.85;;
15254;SDS011;7730;49.610;11.136;2022-09-17T14:44:30;6.88;;;1.60;;
15254;SDS011;7730;49.610;11.136;2022-09-17T14:46:59;5.90;;;1.60;;
15254;SDS011;7730;49.610;11.136;2022-09-17T14:49:28;5.05;;;1.70;;
15254;SDS011;7730;49.610;11.136;2022-09-17T14:51:57;5.35;;;1.48;;
15254;SDS011;7730;49.610;11.136;2022-09-17T14:54:27;6.45;;;1.80;;
15254;SDS011;7730;49.610;11.136;2022-09-17T14:56:55;7.47;;;1.83;;
15254;SDS011;7730;49.610;11.136;2022-09-17T14:59:25;4.50;;;1.60;;
15254;SDS011;7730;49.610;11.136;2022-09-17T15:01:54;6.57;;;1.90;;
15254;SDS011;7730;49.610;11.136;2022-09-17T15:04:22;7.40;;;2.03;;
15254;SDS011;7730;49.610;11.136;2022-09-17T15:06:49;7.03;;;2.10;;
15254;SDS011;7730;49.610;11.136;2022-09-17T15:09:17;5.40;;;1.80;;
15254;SDS011;7730;49.610;11.136;2022-09-17T15:11:45;5.18;;;1.70;;
15254;SDS011;7730;49.610;11.136;2022-09-17T15:14:14;4.28;;;1.80;;
15254;SDS011;7730;49.610;11.136;2022-09-17T15:16:45;5.38;;;1.65;;
15254;SDS011;7730;49.610;11.136;2022-09-17T15:19:13;5.22;;;1.65;;
15254;SDS011;7730;49.610;11.136;2022-09-17T15:21:45;6.05;;;1.90;;
15254;SDS011;7730;49.610;11.136;2022-09-17T15:24:16;5.68;;;1.73;;